sensor_id;sensor_type;location;lat;lon;timestamp;P1;durP1;ratioP1;P2;durP2;ratioP2
5493;SDS011;2769;49.864;8.656;2023-09-30T00:02:21;4.07;;;2.60;;
5493;SDS011;2769;49.864;8.656;2023-09-30T00:05:08;5.30;;;2.70;;
5493;SDS011;2769;49.864;8.656;2023-09-30T00:07:55;7.10;;;2.83;;
5493;SDS011;2769;49.864;8.656;2023-09-30T00:10:41;5.53;;;2.53;;
5493;SDS011;2769;49.864;8.656;2023-09-30T00:13:27;4.23;;;2.67;;
5493;SDS011;2769;49.864;8.656;2023-09-30T00:16:14;3.60;;;2.40;;
5493;SDS011;2769;49.864;8.656;2023-09-30T00:19:04;4.70;;;2.60;;
5493;SDS011;2769;49.864;8.656;2023-09-30T00:21:50;4.33;;;2.50;;
5493;SDS011;2769;49.864;8.656;2023-09-30T00:24:37;4.10;;;2.97;;
5493;SDS011;2769;49.864;8.656;2023-09-30T00:27:24;6.67;;;2.97;;
5493;SDS011;2769;49.864;8.656;2023-09-30T00:30:11;7.20;;;2.80;;
5493;SDS011;2769;49.864;8.656;2023-09-30T00:32:58;5.50;;;3.10;;
5493;SDS011;2769;49.864;8.656;2023-09-30T00:35:47;5.43;;;2.40;;
5493;SDS011;2769;49.864;8.656;2023-09-30T00:38:33;4.17;;;2.90;;
5493;SDS011;2769;49.864;8.656;2023-09-30T00:41:19;5.13;;;2.80;;
5493;SDS011;2769;49.864;8.656;2023-09-30T00:44:05;5.63;;;2.70;;
5493;SDS011;2769;49.864;8.656;2023-09-30T00:46:53;4.97;;;2.90;;
5493;SDS011;2769;49.864;8.656;2023-09-30T00:49:40;5.33;;;3.07;;
5493;SDS011;2769;49.864;8.656;2023-09-30T00:52:28;6.00;;;3.37;;
5493;SDS011;2769;49.864;8.656;2023-09-30T00:55:15;3.50;;;3.20;;
5493;SDS011;2769;49.864;8.656;2023-09-30T00:58:02;4.93;;;3.20;;
5493;SDS011;2769;49.864;8.656;2023-09-30T01:00:48;7.30;;;3.70;;
5493;SDS011;2769;49.864;8.656;2023-09-30T01:03:35;9.00;;;3.87;;
5493;SDS011;2769;49.864;8.656;2023-09-30T01:06:23;6.93;;;4.10;;
5493;SDS011;2769;49.864;8.656;2023-09-30T01:09:13;7.60;;;4.20;;
5493;SDS011;2769;49.864;8.656;2023-09-30T01:11:59;7.90;;;3.60;;
5493;SDS011;2769;49.864;8.656;2023-09-30T01:14:48;9.03;;;3.60;;
5493;SDS011;2769;49.864;8.656;2023-09-30T01:17:34;14.97;;;3.53;;
5493;SDS011;2769;49.864;8.656;2023-09-30T01:20:22;12.07;;;4.33;;
5493;SDS011;2769;49.864;8.656;2023-09-30T01:23:10;4.00;;;3.60;;
5493;SDS011;2769;49.864;8.656;2023-09-30T01:26:00;7.30;;;4.03;;
5493;SDS011;2769;49.864;8.656;2023-09-30T01:28:48;9.27;;;4.10;;
5493;SDS011;2769;49.864;8.656;2023-09-30T01:31:34;9.03;;;4.13;;
5493;SDS011;2769;49.864;8.656;2023-09-30T01:34:21;7.83;;;3.50;;
5493;SDS011;2769;49.864;8.656;2023-09-30T01:37:08;8.10;;;3.87;;
5493;SDS011;2769;49.864;8.656;2023-09-30T01:39:56;6.90;;;3.53;;
5493;SDS011;2769;49.864;8.656;2023-09-30T01:42:43;8.63;;;3.50;;
5493;SDS011;2769;49.864;8.656;2023-09-30T01:45:30;9.23;;;3.57;;
5493;SDS011;2769;49.864;8.656;2023-09-30T01:48:17;6.07;;;3.80;;
5493;SDS011;2769;49.864;8.656;2023-09-30T01:51:04;12.30;;;4.67;;
5493;SDS011;2769;49.864;8.656;2023-09-30T01:53:52;7.97;;;4.30;;
5493;SDS011;2769;49.864;8.656;2023-09-30T01:56:40;7.47;;;4.70;;
5493;SDS011;2769;49.864;8.656;2023-09-30T01:59:27;10.67;;;4.20;;
5493;SDS011;2769;49.864;8.656;2023-09-30T02:02:14;12.20;;;4.70;;
5493;SDS011;2769;49.864;8.656;2023-09-30T02:05:01;7.10;;;3.80;;
5493;SDS011;2769;49.864;8.656;2023-09-30T02:07:47;7.53;;;4.23;;
5493;SDS011;2769;49.864;8.656;2023-09-30T02:10:34;13.63;;;5.03;;
5493;SDS011;2769;49.864;8.656;2023-09-30T02:13:22;29.27;;;4.80;;
5493;SDS011;2769;49.864;8.656;2023-09-30T02:16:11;9.83;;;4.67;;
5493;SDS011;2769;49.864;8.656;2023-09-30T02:18:58;8.17;;;4.90;;
5493;SDS011;2769;49.864;8.656;2023-09-30T02:21:45;8.87;;;4.10;;
5493;SDS011;2769;49.864;8.656;2023-09-30T02:24:32;12.47;;;4.40;;
5493;SDS011;2769;49.864;8.656;2023-09-30T02:27:19;12.83;;;4.93;;
5493;SDS011;2769;49.864;8.656;2023-09-30T02:30:07;11.57;;;4.80;;
5493;SDS011;2769;49.864;8.656;2023-09-30T02:32:56;11.57;;;5.43;;
5493;SDS011;2769;49.864;8.656;2023-09-30T02:35:44;13.27;;;4.07;;
5493;SDS011;2769;49.864;8.656;2023-09-30T02:38:32;18.27;;;4.80;;
5493;SDS011;2769;49.864;8.656;2023-09-30T02:41:19;9.47;;;4.43;;
5493;SDS011;2769;49.864;8.656;2023-09-30T02:44:06;9.03;;;4.13;;
5493;SDS011;2769;49.864;8.656;2023-09-30T02:46:54;8.90;;;4.10;;
5493;SDS011;2769;49.864;8.656;2023-09-30T02:49:40;14.20;;;4.60;;
5493;SDS011;2769;49.864;8.656;2023-09-30T02:52:27;7.90;;;4.13;;
5493;SDS011;2769;49.864;8.656;2023-09-30T02:55:13;7.13;;;4.37;;
5493;SDS011;2769;49.864;8.656;2023-09-30T02:58:01;14.83;;;4.40;;
5493;SDS011;2769;49.864;8.656;2023-09-30T03:00:48;10.97;;;4.03;;
5493;SDS011;2769;49.864;8.656;2023-09-30T03:03:37;7.83;;;3.77;;
5493;SDS011;2769;49.864;8.656;2023-09-30T03:06:25;10.50;;;4.50;;
5493;SDS011;2769;49.864;8.656;2023-09-30T03:09:12;10.03;;;3.57;;
5493;SDS011;2769;49.864;8.656;2023-09-30T03:12:00;13.10;;;4.10;;
5493;SDS011;2769;49.864;8.656;2023-09-30T03:14:47;12.93;;;4.10;;
5493;SDS011;2769;49.864;8.656;2023-09-30T03:17:33;8.50;;;3.40;;
5493;SDS011;2769;49.864;8.656;2023-09-30T03:20:23;14.60;;;4.13;;
5493;SDS011;2769;49.864;8.656;2023-09-30T03:23:10;12.57;;;4.27;;
5493;SDS011;2769;49.864;8.656;2023-09-30T03:25:59;7.97;;;4.33;;
5493;SDS011;2769;49.864;8.656;2023-09-30T03:28:46;9.40;;;4.30;;
5493;SDS011;2769;49.864;8.656;2023-09-30T03:31:32;10.43;;;3.67;;
5493;SDS011;2769;49.864;8.656;2023-09-30T03:34:19;8.23;;;3.83;;
5493;SDS011;2769;49.864;8.656;2023-09-30T03:37:06;10.33;;;3.87;;
5493;SDS011;2769;49.864;8.656;2023-09-30T03:39:54;9.80;;;4.70;;
5493;SDS011;2769;49.864;8.656;2023-09-30T03:42:41;10.93;;;3.70;;
5493;SDS011;2769;49.864;8.656;2023-09-30T03:45:28;9.23;;;3.90;;
5493;SDS011;2769;49.864;8.656;2023-09-30T03:48:15;8.47;;;3.60;;
5493;SDS011;2769;49.864;8.656;2023-09-30T03:51:07;14.57;;;4.63;;
5493;SDS011;2769;49.864;8.656;2023-09-30T03:53:56;11.83;;;4.30;;
5493;SDS011;2769;49.864;8.656;2023-09-30T03:56:43;9.13;;;4.10;;
5493;SDS011;2769;49.864;8.656;2023-09-30T03:59:29;9.93;;;4.30;;
5493;SDS011;2769;49.864;8.656;2023-09-30T04:02:16;10.10;;;4.37;;
5493;SDS011;2769;49.864;8.656;2023-09-30T04:05:03;11.23;;;4.30;;
5493;SDS011;2769;49.864;8.656;2023-09-30T04:07:50;6.97;;;4.37;;
5493;SDS011;2769;49.864;8.656;2023-09-30T04:10:38;11.33;;;4.43;;
5493;SDS011;2769;49.864;8.656;2023-09-30T04:13:25;15.90;;;4.50;;
5493;SDS011;2769;49.864;8.656;2023-09-30T04:16:11;11.00;;;4.30;;
5493;SDS011;2769;49.864;8.656;2023-09-30T04:18:58;7.97;;;3.60;;
5493;SDS011;2769;49.864;8.656;2023-09-30T04:21:45;7.33;;;3.60;;
5493;SDS011;2769;49.864;8.656;2023-09-30T04:24:32;7.60;;;3.87;;
5493;SDS011;2769;49.864;8.656;2023-09-30T04:27:21;12.10;;;3.90;;
5493;SDS011;2769;49.864;8.656;2023-09-30T04:30:08;10.67;;;3.93;;
5493;SDS011;2769;49.864;8.656;2023-09-30T04:32:56;12.23;;;4.20;;
5493;SDS011;2769;49.864;8.656;2023-09-30T04:35:43;9.73;;;3.80;;
5493;SDS011;2769;49.864;8.656;2023-09-30T04:38:30;12.53;;;3.60;;
5493;SDS011;2769;49.864;8.656;2023-09-30T04:41:16;8.47;;;4.53;;
5493;SDS011;2769;49.864;8.656;2023-09-30T04:44:05;15.17;;;4.70;;
5493;SDS011;2769;49.864;8.656;2023-09-30T04:46:53;11.43;;;4.03;;
5493;SDS011;2769;49.864;8.656;2023-09-30T04:49:41;10.00;;;4.30;;
5493;SDS011;2769;49.864;8.656;2023-09-30T04:52:28;12.20;;;4.50;;
5493;SDS011;2769;49.864;8.656;2023-09-30T04:55:15;11.73;;;5.57;;
5493;SDS011;2769;49.864;8.656;2023-09-30T04:58:02;13.90;;;4.83;;
5493;SDS011;2769;49.864;8.656;2023-09-30T05:00:51;11.87;;;5.37;;
5493;SDS011;2769;49.864;8.656;2023-09-30T05:03:38;12.00;;;4.87;;
5493;SDS011;2769;49.864;8.656;2023-09-30T05:06:24;9.33;;;4.37;;
5493;SDS011;2769;49.864;8.656;2023-09-30T05:09:12;9.70;;;4.20;;
5493;SDS011;2769;49.864;8.656;2023-09-30T05:11:58;14.40;;;4.20;;
5493;SDS011;2769;49.864;8.656;2023-09-30T05:14:45;11.97;;;6.00;;
5493;SDS011;2769;49.864;8.656;2023-09-30T05:17:32;10.77;;;5.13;;
5493;SDS011;2769;49.864;8.656;2023-09-30T05:20:19;13.87;;;5.40;;
5493;SDS011;2769;49.864;8.656;2023-09-30T05:23:08;12.47;;;5.37;;
5493;SDS011;2769;49.864;8.656;2023-09-30T05:25:57;12.17;;;5.30;;
5493;SDS011;2769;49.864;8.656;2023-09-30T05:28:43;13.30;;;5.53;;
5493;SDS011;2769;49.864;8.656;2023-09-30T05:31:30;9.33;;;4.83;;
5493;SDS011;2769;49.864;8.656;2023-09-30T05:34:18;12.80;;;5.30;;
5493;SDS011;2769;49.864;8.656;2023-09-30T05:37:05;14.40;;;5.40;;
5493;SDS011;2769;49.864;8.656;2023-09-30T05:39:52;10.50;;;5.40;;
5493;SDS011;2769;49.864;8.656;2023-09-30T05:42:38;15.57;;;5.20;;
5493;SDS011;2769;49.864;8.656;2023-09-30T05:45:25;11.07;;;5.20;;
5493;SDS011;2769;49.864;8.656;2023-09-30T05:48:12;14.50;;;5.47;;
5493;SDS011;2769;49.864;8.656;2023-09-30T05:51:00;12.30;;;5.17;;
5493;SDS011;2769;49.864;8.656;2023-09-30T05:53:46;8.87;;;5.40;;
5493;SDS011;2769;49.864;8.656;2023-09-30T05:56:33;13.57;;;5.93;;
5493;SDS011;2769;49.864;8.656;2023-09-30T05:59:20;8.80;;;4.50;;
5493;SDS011;2769;49.864;8.656;2023-09-30T06:02:06;11.50;;;5.73;;
5493;SDS011;2769;49.864;8.656;2023-09-30T06:04:52;13.33;;;5.47;;
5493;SDS011;2769;49.864;8.656;2023-09-30T06:07:41;9.03;;;5.27;;
5493;SDS011;2769;49.864;8.656;2023-09-30T06:10:30;14.20;;;6.17;;
5493;SDS011;2769;49.864;8.656;2023-09-30T06:13:17;23.27;;;6.10;;
5493;SDS011;2769;49.864;8.656;2023-09-30T06:16:03;9.60;;;5.70;;
5493;SDS011;2769;49.864;8.656;2023-09-30T06:18:54;10.30;;;5.80;;
5493;SDS011;2769;49.864;8.656;2023-09-30T06:21:41;14.60;;;5.50;;
5493;SDS011;2769;49.864;8.656;2023-09-30T06:24:29;11.93;;;6.40;;
5493;SDS011;2769;49.864;8.656;2023-09-30T06:27:16;10.73;;;5.50;;
5493;SDS011;2769;49.864;8.656;2023-09-30T06:30:04;12.43;;;5.40;;
5493;SDS011;2769;49.864;8.656;2023-09-30T06:32:51;12.13;;;5.57;;
5493;SDS011;2769;49.864;8.656;2023-09-30T06:35:40;10.20;;;5.50;;
5493;SDS011;2769;49.864;8.656;2023-09-30T06:38:35;13.67;;;5.70;;
5493;SDS011;2769;49.864;8.656;2023-09-30T06:41:24;12.60;;;6.13;;
5493;SDS011;2769;49.864;8.656;2023-09-30T06:44:10;14.70;;;4.90;;
5493;SDS011;2769;49.864;8.656;2023-09-30T06:46:57;9.53;;;5.37;;
5493;SDS011;2769;49.864;8.656;2023-09-30T06:49:44;12.43;;;5.23;;
5493;SDS011;2769;49.864;8.656;2023-09-30T06:52:31;20.43;;;4.90;;
5493;SDS011;2769;49.864;8.656;2023-09-30T06:55:19;16.73;;;5.20;;
5493;SDS011;2769;49.864;8.656;2023-09-30T06:58:06;11.10;;;5.47;;
5493;SDS011;2769;49.864;8.656;2023-09-30T07:00:53;13.57;;;5.20;;
5493;SDS011;2769;49.864;8.656;2023-09-30T07:03:40;10.50;;;5.40;;
5493;SDS011;2769;49.864;8.656;2023-09-30T07:06:27;12.97;;;5.87;;
5493;SDS011;2769;49.864;8.656;2023-09-30T07:09:14;13.00;;;5.83;;
5493;SDS011;2769;49.864;8.656;2023-09-30T07:12:01;11.03;;;5.03;;
5493;SDS011;2769;49.864;8.656;2023-09-30T07:14:50;13.93;;;5.50;;
5493;SDS011;2769;49.864;8.656;2023-09-30T07:17:37;15.87;;;6.33;;
5493;SDS011;2769;49.864;8.656;2023-09-30T07:20:26;11.60;;;5.40;;
5493;SDS011;2769;49.864;8.656;2023-09-30T07:23:14;14.73;;;5.33;;
5493;SDS011;2769;49.864;8.656;2023-09-30T07:26:04;11.50;;;5.20;;
5493;SDS011;2769;49.864;8.656;2023-09-30T07:28:51;13.47;;;4.63;;
5493;SDS011;2769;49.864;8.656;2023-09-30T07:31:40;11.27;;;5.43;;
5493;SDS011;2769;49.864;8.656;2023-09-30T07:34:27;14.43;;;5.40;;
5493;SDS011;2769;49.864;8.656;2023-09-30T07:37:14;12.93;;;5.80;;
5493;SDS011;2769;49.864;8.656;2023-09-30T07:40:02;10.20;;;4.87;;
5493;SDS011;2769;49.864;8.656;2023-09-30T07:42:49;10.40;;;5.10;;
5493;SDS011;2769;49.864;8.656;2023-09-30T07:45:36;13.13;;;5.03;;
5493;SDS011;2769;49.864;8.656;2023-09-30T07:48:25;10.73;;;4.37;;
5493;SDS011;2769;49.864;8.656;2023-09-30T07:51:12;10.43;;;4.67;;
5493;SDS011;2769;49.864;8.656;2023-09-30T07:54:00;9.77;;;4.97;;
5493;SDS011;2769;49.864;8.656;2023-09-30T07:57:08;12.53;;;5.30;;
5493;SDS011;2769;49.864;8.656;2023-09-30T07:59:54;11.03;;;4.90;;
5493;SDS011;2769;49.864;8.656;2023-09-30T08:02:41;9.90;;;4.83;;
5493;SDS011;2769;49.864;8.656;2023-09-30T08:05:29;8.87;;;4.67;;
5493;SDS011;2769;49.864;8.656;2023-09-30T08:08:16;13.50;;;5.43;;
5493;SDS011;2769;49.864;8.656;2023-09-30T08:11:02;16.33;;;5.30;;
5493;SDS011;2769;49.864;8.656;2023-09-30T08:13:50;7.83;;;5.20;;
5493;SDS011;2769;49.864;8.656;2023-09-30T08:16:36;16.80;;;5.30;;
5493;SDS011;2769;49.864;8.656;2023-09-30T08:19:23;16.40;;;5.87;;
5493;SDS011;2769;49.864;8.656;2023-09-30T08:22:11;11.33;;;5.00;;
5493;SDS011;2769;49.864;8.656;2023-09-30T08:24:57;10.10;;;4.13;;
5493;SDS011;2769;49.864;8.656;2023-09-30T08:27:44;11.33;;;4.93;;
5493;SDS011;2769;49.864;8.656;2023-09-30T08:30:35;9.97;;;5.03;;
5493;SDS011;2769;49.864;8.656;2023-09-30T08:33:21;13.83;;;4.90;;
5493;SDS011;2769;49.864;8.656;2023-09-30T08:36:08;12.90;;;5.00;;
5493;SDS011;2769;49.864;8.656;2023-09-30T08:38:56;15.97;;;5.47;;
5493;SDS011;2769;49.864;8.656;2023-09-30T08:41:43;13.17;;;4.47;;
5493;SDS011;2769;49.864;8.656;2023-09-30T08:44:30;13.10;;;4.70;;
5493;SDS011;2769;49.864;8.656;2023-09-30T08:47:16;17.20;;;4.97;;
5493;SDS011;2769;49.864;8.656;2023-09-30T08:50:03;12.37;;;4.97;;
5493;SDS011;2769;49.864;8.656;2023-09-30T08:52:53;11.63;;;4.87;;
5493;SDS011;2769;49.864;8.656;2023-09-30T08:55:41;9.70;;;4.50;;
5493;SDS011;2769;49.864;8.656;2023-09-30T08:58:29;10.77;;;5.33;;
5493;SDS011;2769;49.864;8.656;2023-09-30T09:01:17;10.63;;;4.93;;
5493;SDS011;2769;49.864;8.656;2023-09-30T09:04:04;9.70;;;4.90;;
5493;SDS011;2769;49.864;8.656;2023-09-30T09:06:53;10.53;;;4.57;;
5493;SDS011;2769;49.864;8.656;2023-09-30T09:09:40;7.10;;;4.30;;
5493;SDS011;2769;49.864;8.656;2023-09-30T09:12:28;8.00;;;4.30;;
5493;SDS011;2769;49.864;8.656;2023-09-30T09:15:22;10.63;;;4.20;;
5493;SDS011;2769;49.864;8.656;2023-09-30T09:18:10;4.97;;;3.60;;
5493;SDS011;2769;49.864;8.656;2023-09-30T09:21:09;9.60;;;4.40;;
5493;SDS011;2769;49.864;8.656;2023-09-30T09:23:56;11.03;;;4.40;;
5493;SDS011;2769;49.864;8.656;2023-09-30T09:26:43;9.87;;;5.33;;
5493;SDS011;2769;49.864;8.656;2023-09-30T09:29:31;9.17;;;4.30;;
5493;SDS011;2769;49.864;8.656;2023-09-30T09:32:18;8.37;;;3.57;;
5493;SDS011;2769;49.864;8.656;2023-09-30T09:35:05;9.17;;;3.60;;
5493;SDS011;2769;49.864;8.656;2023-09-30T09:37:56;8.83;;;3.87;;
5493;SDS011;2769;49.864;8.656;2023-09-30T09:40:43;9.87;;;3.50;;
5493;SDS011;2769;49.864;8.656;2023-09-30T09:43:30;5.10;;;3.50;;
5493;SDS011;2769;49.864;8.656;2023-09-30T09:46:19;7.60;;;3.40;;
5493;SDS011;2769;49.864;8.656;2023-09-30T09:49:05;9.73;;;3.40;;
5493;SDS011;2769;49.864;8.656;2023-09-30T09:51:52;6.60;;;3.17;;
5493;SDS011;2769;49.864;8.656;2023-09-30T09:54:39;10.03;;;3.70;;
5493;SDS011;2769;49.864;8.656;2023-09-30T09:57:27;6.60;;;3.27;;
5493;SDS011;2769;49.864;8.656;2023-09-30T10:00:15;6.00;;;3.10;;
5493;SDS011;2769;49.864;8.656;2023-09-30T10:03:04;10.60;;;3.43;;
5493;SDS011;2769;49.864;8.656;2023-09-30T10:05:51;8.90;;;3.40;;
5493;SDS011;2769;49.864;8.656;2023-09-30T10:08:38;7.77;;;3.57;;
5493;SDS011;2769;49.864;8.656;2023-09-30T10:11:27;10.00;;;3.27;;
5493;SDS011;2769;49.864;8.656;2023-09-30T10:14:29;6.10;;;3.30;;
5493;SDS011;2769;49.864;8.656;2023-09-30T10:17:17;7.47;;;3.80;;
5493;SDS011;2769;49.864;8.656;2023-09-30T10:20:06;5.53;;;3.27;;
5493;SDS011;2769;49.864;8.656;2023-09-30T10:26:15;6.73;;;3.50;;
5493;SDS011;2769;49.864;8.656;2023-09-30T10:29:08;6.10;;;3.50;;
5493;SDS011;2769;49.864;8.656;2023-09-30T10:31:55;7.70;;;3.50;;
5493;SDS011;2769;49.864;8.656;2023-09-30T10:34:46;7.20;;;3.40;;
5493;SDS011;2769;49.864;8.656;2023-09-30T10:37:35;9.47;;;3.77;;
5493;SDS011;2769;49.864;8.656;2023-09-30T10:40:25;7.97;;;3.83;;
5493;SDS011;2769;49.864;8.656;2023-09-30T10:46:30;6.17;;;3.40;;
5493;SDS011;2769;49.864;8.656;2023-09-30T10:49:31;3.40;;;3.03;;
5493;SDS011;2769;49.864;8.656;2023-09-30T10:52:21;8.00;;;3.50;;
5493;SDS011;2769;49.864;8.656;2023-09-30T10:55:09;5.87;;;3.70;;
5493;SDS011;2769;49.864;8.656;2023-09-30T10:57:56;4.60;;;3.17;;
5493;SDS011;2769;49.864;8.656;2023-09-30T11:00:51;4.83;;;3.37;;
5493;SDS011;2769;49.864;8.656;2023-09-30T11:04:53;5.53;;;3.30;;
5493;SDS011;2769;49.864;8.656;2023-09-30T11:07:39;7.57;;;3.80;;
5493;SDS011;2769;49.864;8.656;2023-09-30T11:10:29;8.57;;;3.27;;
5493;SDS011;2769;49.864;8.656;2023-09-30T11:13:16;5.57;;;3.37;;
5493;SDS011;2769;49.864;8.656;2023-09-30T11:16:03;8.27;;;3.47;;
5493;SDS011;2769;49.864;8.656;2023-09-30T11:18:52;4.63;;;3.20;;
5493;SDS011;2769;49.864;8.656;2023-09-30T11:21:41;6.40;;;2.87;;
5493;SDS011;2769;49.864;8.656;2023-09-30T11:24:29;4.20;;;3.37;;
5493;SDS011;2769;49.864;8.656;2023-09-30T11:27:21;7.50;;;4.00;;
5493;SDS011;2769;49.864;8.656;2023-09-30T11:30:10;6.47;;;3.43;;
5493;SDS011;2769;49.864;8.656;2023-09-30T11:32:58;8.97;;;3.50;;
5493;SDS011;2769;49.864;8.656;2023-09-30T11:35:55;8.53;;;4.13;;
5493;SDS011;2769;49.864;8.656;2023-09-30T11:38:45;6.80;;;3.30;;
5493;SDS011;2769;49.864;8.656;2023-09-30T11:41:33;6.53;;;2.90;;
5493;SDS011;2769;49.864;8.656;2023-09-30T11:44:21;5.27;;;3.10;;
5493;SDS011;2769;49.864;8.656;2023-09-30T11:47:09;4.70;;;3.00;;
5493;SDS011;2769;49.864;8.656;2023-09-30T11:49:57;5.70;;;3.40;;
5493;SDS011;2769;49.864;8.656;2023-09-30T11:52:46;4.10;;;2.93;;
5493;SDS011;2769;49.864;8.656;2023-09-30T11:55:34;6.20;;;3.20;;
5493;SDS011;2769;49.864;8.656;2023-09-30T11:58:22;5.73;;;3.23;;
5493;SDS011;2769;49.864;8.656;2023-09-30T12:01:08;6.10;;;3.10;;
5493;SDS011;2769;49.864;8.656;2023-09-30T12:03:58;5.03;;;3.10;;
5493;SDS011;2769;49.864;8.656;2023-09-30T12:06:45;5.87;;;3.23;;
5493;SDS011;2769;49.864;8.656;2023-09-30T12:09:33;8.47;;;3.27;;
5493;SDS011;2769;49.864;8.656;2023-09-30T12:12:23;3.70;;;2.87;;
5493;SDS011;2769;49.864;8.656;2023-09-30T12:15:10;5.97;;;3.17;;
5493;SDS011;2769;49.864;8.656;2023-09-30T12:17:59;3.77;;;2.70;;
5493;SDS011;2769;49.864;8.656;2023-09-30T12:20:45;5.73;;;3.00;;
5493;SDS011;2769;49.864;8.656;2023-09-30T12:23:32;6.23;;;3.10;;
5493;SDS011;2769;49.864;8.656;2023-09-30T12:26:20;5.97;;;2.90;;
5493;SDS011;2769;49.864;8.656;2023-09-30T12:29:08;6.73;;;3.33;;
5493;SDS011;2769;49.864;8.656;2023-09-30T12:31:55;4.50;;;3.00;;
5493;SDS011;2769;49.864;8.656;2023-09-30T12:34:41;7.03;;;3.20;;
5493;SDS011;2769;49.864;8.656;2023-09-30T12:37:29;6.30;;;3.47;;
5493;SDS011;2769;49.864;8.656;2023-09-30T12:40:15;5.50;;;3.10;;
5493;SDS011;2769;49.864;8.656;2023-09-30T12:43:03;8.00;;;2.97;;
5493;SDS011;2769;49.864;8.656;2023-09-30T12:45:52;6.57;;;2.77;;
5493;SDS011;2769;49.864;8.656;2023-09-30T12:48:39;3.97;;;2.30;;
5493;SDS011;2769;49.864;8.656;2023-09-30T12:51:26;5.53;;;2.80;;
5493;SDS011;2769;49.864;8.656;2023-09-30T12:54:13;4.00;;;2.90;;
5493;SDS011;2769;49.864;8.656;2023-09-30T12:57:03;4.50;;;2.80;;
5493;SDS011;2769;49.864;8.656;2023-09-30T12:59:52;4.90;;;3.40;;
5493;SDS011;2769;49.864;8.656;2023-09-30T13:02:39;6.77;;;3.07;;
5493;SDS011;2769;49.864;8.656;2023-09-30T13:05:26;3.70;;;2.83;;
5493;SDS011;2769;49.864;8.656;2023-09-30T13:08:14;5.23;;;3.30;;
5493;SDS011;2769;49.864;8.656;2023-09-30T13:11:01;7.33;;;2.80;;
5493;SDS011;2769;49.864;8.656;2023-09-30T13:13:48;3.77;;;3.00;;
5493;SDS011;2769;49.864;8.656;2023-09-30T13:16:35;4.53;;;3.00;;
5493;SDS011;2769;49.864;8.656;2023-09-30T13:19:23;4.20;;;3.10;;
5493;SDS011;2769;49.864;8.656;2023-09-30T13:22:09;4.57;;;3.17;;
5493;SDS011;2769;49.864;8.656;2023-09-30T13:25:03;6.23;;;2.83;;
5493;SDS011;2769;49.864;8.656;2023-09-30T13:27:50;4.87;;;3.07;;
5493;SDS011;2769;49.864;8.656;2023-09-30T13:30:37;4.37;;;3.23;;
5493;SDS011;2769;49.864;8.656;2023-09-30T13:33:24;7.67;;;3.20;;
5493;SDS011;2769;49.864;8.656;2023-09-30T13:36:13;6.00;;;3.50;;
5493;SDS011;2769;49.864;8.656;2023-09-30T13:38:59;5.47;;;3.37;;
5493;SDS011;2769;49.864;8.656;2023-09-30T13:41:50;4.13;;;3.00;;
5493;SDS011;2769;49.864;8.656;2023-09-30T13:44:36;3.60;;;3.23;;
5493;SDS011;2769;49.864;8.656;2023-09-30T13:47:23;3.20;;;2.80;;
5493;SDS011;2769;49.864;8.656;2023-09-30T13:50:10;3.87;;;2.93;;
5493;SDS011;2769;49.864;8.656;2023-09-30T13:52:58;5.40;;;3.20;;
5493;SDS011;2769;49.864;8.656;2023-09-30T13:55:47;4.37;;;3.23;;
5493;SDS011;2769;49.864;8.656;2023-09-30T13:58:35;5.97;;;3.10;;
5493;SDS011;2769;49.864;8.656;2023-09-30T14:01:22;5.10;;;3.50;;
5493;SDS011;2769;49.864;8.656;2023-09-30T14:04:09;4.27;;;3.07;;
5493;SDS011;2769;49.864;8.656;2023-09-30T14:06:56;6.00;;;3.30;;
5493;SDS011;2769;49.864;8.656;2023-09-30T14:09:46;4.47;;;3.10;;
5493;SDS011;2769;49.864;8.656;2023-09-30T14:12:32;4.33;;;3.10;;
5493;SDS011;2769;49.864;8.656;2023-09-30T14:15:19;10.20;;;3.07;;
5493;SDS011;2769;49.864;8.656;2023-09-30T14:18:05;5.67;;;3.40;;
5493;SDS011;2769;49.864;8.656;2023-09-30T14:20:53;4.83;;;3.00;;
5493;SDS011;2769;49.864;8.656;2023-09-30T14:23:39;4.70;;;2.90;;
5493;SDS011;2769;49.864;8.656;2023-09-30T14:26:27;3.47;;;2.70;;
5493;SDS011;2769;49.864;8.656;2023-09-30T14:29:13;5.10;;;3.57;;
5493;SDS011;2769;49.864;8.656;2023-09-30T14:32:00;6.80;;;3.13;;
5493;SDS011;2769;49.864;8.656;2023-09-30T14:34:47;4.17;;;3.30;;
5493;SDS011;2769;49.864;8.656;2023-09-30T14:37:33;5.57;;;3.00;;
5493;SDS011;2769;49.864;8.656;2023-09-30T14:40:20;7.13;;;3.90;;
5493;SDS011;2769;49.864;8.656;2023-09-30T14:43:07;7.43;;;3.97;;
5493;SDS011;2769;49.864;8.656;2023-09-30T14:45:55;3.90;;;3.10;;
5493;SDS011;2769;49.864;8.656;2023-09-30T14:48:42;7.23;;;3.60;;
5493;SDS011;2769;49.864;8.656;2023-09-30T14:51:29;4.73;;;3.30;;
5493;SDS011;2769;49.864;8.656;2023-09-30T14:54:16;7.63;;;3.50;;
5493;SDS011;2769;49.864;8.656;2023-09-30T14:57:02;13.73;;;3.67;;
5493;SDS011;2769;49.864;8.656;2023-09-30T14:59:50;6.50;;;3.10;;
5493;SDS011;2769;49.864;8.656;2023-09-30T15:02:36;2.87;;;2.47;;
5493;SDS011;2769;49.864;8.656;2023-09-30T15:05:24;5.50;;;3.30;;
5493;SDS011;2769;49.864;8.656;2023-09-30T15:08:10;4.00;;;3.30;;
5493;SDS011;2769;49.864;8.656;2023-09-30T15:10:57;6.07;;;3.53;;
5493;SDS011;2769;49.864;8.656;2023-09-30T15:13:44;4.83;;;3.07;;
5493;SDS011;2769;49.864;8.656;2023-09-30T15:16:32;5.33;;;3.63;;
5493;SDS011;2769;49.864;8.656;2023-09-30T15:19:20;5.20;;;4.20;;
5493;SDS011;2769;49.864;8.656;2023-09-30T15:22:06;4.93;;;3.30;;
5493;SDS011;2769;49.864;8.656;2023-09-30T15:24:53;4.33;;;3.50;;
5493;SDS011;2769;49.864;8.656;2023-09-30T15:27:40;4.90;;;3.17;;
5493;SDS011;2769;49.864;8.656;2023-09-30T15:30:27;6.73;;;3.80;;
5493;SDS011;2769;49.864;8.656;2023-09-30T15:33:16;7.57;;;3.87;;
5493;SDS011;2769;49.864;8.656;2023-09-30T15:36:08;8.50;;;3.83;;
5493;SDS011;2769;49.864;8.656;2023-09-30T15:38:55;5.20;;;3.40;;
5493;SDS011;2769;49.864;8.656;2023-09-30T15:41:41;8.00;;;4.17;;
5493;SDS011;2769;49.864;8.656;2023-09-30T15:44:28;7.27;;;4.37;;
5493;SDS011;2769;49.864;8.656;2023-09-30T15:47:14;9.10;;;3.33;;
5493;SDS011;2769;49.864;8.656;2023-09-30T15:50:02;7.67;;;3.90;;
5493;SDS011;2769;49.864;8.656;2023-09-30T15:52:49;5.73;;;3.40;;
5493;SDS011;2769;49.864;8.656;2023-09-30T15:55:35;5.40;;;3.70;;
5493;SDS011;2769;49.864;8.656;2023-09-30T15:58:22;4.90;;;3.20;;
5493;SDS011;2769;49.864;8.656;2023-09-30T16:01:10;7.10;;;3.83;;
5493;SDS011;2769;49.864;8.656;2023-09-30T16:03:58;6.53;;;4.10;;
5493;SDS011;2769;49.864;8.656;2023-09-30T16:06:47;5.27;;;3.60;;
5493;SDS011;2769;49.864;8.656;2023-09-30T16:09:33;5.70;;;3.30;;
5493;SDS011;2769;49.864;8.656;2023-09-30T16:12:20;6.50;;;3.67;;
5493;SDS011;2769;49.864;8.656;2023-09-30T16:15:07;6.73;;;3.87;;
5493;SDS011;2769;49.864;8.656;2023-09-30T16:17:56;5.50;;;3.87;;
5493;SDS011;2769;49.864;8.656;2023-09-30T16:20:43;6.80;;;3.30;;
5493;SDS011;2769;49.864;8.656;2023-09-30T16:23:31;4.20;;;3.57;;
5493;SDS011;2769;49.864;8.656;2023-09-30T16:26:17;11.23;;;4.60;;
5493;SDS011;2769;49.864;8.656;2023-09-30T16:29:04;14.10;;;4.47;;
5493;SDS011;2769;49.864;8.656;2023-09-30T16:31:50;6.43;;;4.47;;
5493;SDS011;2769;49.864;8.656;2023-09-30T16:34:37;9.17;;;7.30;;
5493;SDS011;2769;49.864;8.656;2023-09-30T16:37:23;12.53;;;9.00;;
5493;SDS011;2769;49.864;8.656;2023-09-30T16:40:11;24.30;;;18.27;;
5493;SDS011;2769;49.864;8.656;2023-09-30T16:42:58;18.93;;;12.97;;
5493;SDS011;2769;49.864;8.656;2023-09-30T16:45:45;10.90;;;8.40;;
5493;SDS011;2769;49.864;8.656;2023-09-30T16:48:33;10.63;;;5.40;;
5493;SDS011;2769;49.864;8.656;2023-09-30T16:51:20;8.23;;;5.43;;
5493;SDS011;2769;49.864;8.656;2023-09-30T16:54:08;5.40;;;4.20;;
5493;SDS011;2769;49.864;8.656;2023-09-30T16:56:55;6.07;;;4.20;;
5493;SDS011;2769;49.864;8.656;2023-09-30T16:59:43;9.73;;;4.67;;
5493;SDS011;2769;49.864;8.656;2023-09-30T17:02:31;6.00;;;4.20;;
5493;SDS011;2769;49.864;8.656;2023-09-30T17:05:18;8.97;;;3.63;;
5493;SDS011;2769;49.864;8.656;2023-09-30T17:08:04;9.40;;;4.30;;
5493;SDS011;2769;49.864;8.656;2023-09-30T17:10:51;6.07;;;4.10;;
5493;SDS011;2769;49.864;8.656;2023-09-30T17:13:41;7.37;;;4.10;;
5493;SDS011;2769;49.864;8.656;2023-09-30T17:16:28;7.47;;;4.67;;
5493;SDS011;2769;49.864;8.656;2023-09-30T17:19:15;8.40;;;4.67;;
5493;SDS011;2769;49.864;8.656;2023-09-30T17:22:02;5.90;;;3.60;;
5493;SDS011;2769;49.864;8.656;2023-09-30T17:24:50;6.57;;;3.50;;